sensor_id;sensor_type;location;lat;lon;timestamp;P1;durP1;ratioP1;P2;durP2;ratioP2
42884;SDS011;28534;48.100;11.584;2023-01-19T00:02:26;3.60;;;1.60;;
42884;SDS011;28534;48.100;11.584;2023-01-19T00:07:30;3.15;;;1.30;;
42884;SDS011;28534;48.100;11.584;2023-01-19T00:12:32;2.17;;;1.30;;
42884;SDS011;28534;48.100;11.584;2023-01-19T00:17:34;3.17;;;1.40;;
42884;SDS011;28534;48.100;11.584;2023-01-19T00:22:37;2.65;;;1.35;;
42884;SDS011;28534;48.100;11.584;2023-01-19T00:27:38;3.28;;;1.77;;
42884;SDS011;28534;48.100;11.584;2023-01-19T00:32:40;3.50;;;1.50;;
42884;SDS011;28534;48.100;11.584;2023-01-19T00:37:43;3.78;;;1.40;;
42884;SDS011;28534;48.100;11.584;2023-01-19T00:42:45;3.17;;;1.42;;
42884;SDS011;28534;48.100;11.584;2023-01-19T00:47:47;2.40;;;1.42;;
42884;SDS011;28534;48.100;11.584;2023-01-19T00:52:55;2.30;;;1.38;;
42884;SDS011;28534;48.100;11.584;2023-01-19T00:57:59;2.90;;;1.30;;
42884;SDS011;28534;48.100;11.584;2023-01-19T01:03:01;2.40;;;1.30;;
42884;SDS011;28534;48.100;11.584;2023-01-19T01:08:05;2.05;;;1.30;;
42884;SDS011;28534;48.100;11.584;2023-01-19T01:13:06;4.72;;;1.65;;
42884;SDS011;28534;48.100;11.584;2023-01-19T01:18:08;2.60;;;1.50;;
42884;SDS011;28534;48.100;11.584;2023-01-19T01:23:11;5.65;;;1.38;;
42884;SDS011;28534;48.100;11.584;2023-01-19T01:28:13;3.40;;;1.60;;
42884;SDS011;28534;48.100;11.584;2023-01-19T01:33:15;2.28;;;1.40;;
42884;SDS011;28534;48.100;11.584;2023-01-19T01:38:18;3.17;;;1.63;;
42884;SDS011;28534;48.100;11.584;2023-01-19T01:43:20;3.45;;;1.58;;
42884;SDS011;28534;48.100;11.584;2023-01-19T01:48:22;2.05;;;1.30;;
42884;SDS011;28534;48.100;11.584;2023-01-19T01:53:30;3.20;;;1.38;;
42884;SDS011;28534;48.100;11.584;2023-01-19T01:58:34;2.60;;;1.30;;
42884;SDS011;28534;48.100;11.584;2023-01-19T02:03:37;3.63;;;1.73;;
42884;SDS011;28534;48.100;11.584;2023-01-19T02:08:42;2.58;;;1.40;;
42884;SDS011;28534;48.100;11.584;2023-01-19T02:14:05;1.85;;;1.45;;
42884;SDS011;28534;48.100;11.584;2023-01-19T02:19:07;4.25;;;1.33;;
42884;SDS011;28534;48.100;11.584;2023-01-19T02:24:14;3.42;;;1.50;;
42884;SDS011;28534;48.100;11.584;2023-01-19T02:29:17;1.67;;;1.48;;
42884;SDS011;28534;48.100;11.584;2023-01-19T02:34:20;2.55;;;1.40;;
42884;SDS011;28534;48.100;11.584;2023-01-19T02:39:26;3.35;;;1.30;;
42884;SDS011;28534;48.100;11.584;2023-01-19T02:44:33;2.00;;;1.40;;
42884;SDS011;28534;48.100;11.584;2023-01-19T02:49:37;2.97;;;1.40;;
42884;SDS011;28534;48.100;11.584;2023-01-19T02:54:42;1.90;;;1.30;;
42884;SDS011;28534;48.100;11.584;2023-01-19T02:59:54;2.50;;;1.42;;
42884;SDS011;28534;48.100;11.584;2023-01-19T03:10:41;3.30;;;1.40;;
42884;SDS011;28534;48.100;11.584;2023-01-19T03:15:51;3.47;;;1.45;;
42884;SDS011;28534;48.100;11.584;2023-01-19T03:20:57;2.42;;;1.52;;
42884;SDS011;28534;48.100;11.584;2023-01-19T03:26:04;2.20;;;1.50;;
42884;SDS011;28534;48.100;11.584;2023-01-19T03:31:10;2.08;;;1.20;;
42884;SDS011;28534;48.100;11.584;2023-01-19T03:36:16;2.25;;;1.30;;
42884;SDS011;28534;48.100;11.584;2023-01-19T03:41:23;1.60;;;1.30;;
42884;SDS011;28534;48.100;11.584;2023-01-19T03:46:27;2.55;;;1.33;;
42884;SDS011;28534;48.100;11.584;2023-01-19T03:51:30;2.05;;;1.20;;
42884;SDS011;28534;48.100;11.584;2023-01-19T03:56:37;2.22;;;1.40;;
42884;SDS011;28534;48.100;11.584;2023-01-19T04:01:39;2.42;;;1.50;;
42884;SDS011;28534;48.100;11.584;2023-01-19T04:06:41;1.33;;;1.20;;
42884;SDS011;28534;48.100;11.584;2023-01-19T04:11:45;2.03;;;1.55;;
42884;SDS011;28534;48.100;11.584;2023-01-19T04:16:46;2.67;;;1.20;;
42884;SDS011;28534;48.100;11.584;2023-01-19T04:21:48;1.48;;;1.15;;
42884;SDS011;28534;48.100;11.584;2023-01-19T04:26:51;2.28;;;1.48;;
42884;SDS011;28534;48.100;11.584;2023-01-19T04:31:53;2.42;;;1.30;;
42884;SDS011;28534;48.100;11.584;2023-01-19T04:36:55;2.08;;;1.02;;
42884;SDS011;28534;48.100;11.584;2023-01-19T04:41:58;1.02;;;0.95;;
42884;SDS011;28534;48.100;11.584;2023-01-19T04:47:00;1.42;;;1.00;;
42884;SDS011;28534;48.100;11.584;2023-01-19T04:52:02;1.80;;;1.10;;
42884;SDS011;28534;48.100;11.584;2023-01-19T04:57:05;2.20;;;1.20;;
42884;SDS011;28534;48.100;11.584;2023-01-19T05:02:07;1.73;;;1.15;;
42884;SDS011;28534;48.100;11.584;2023-01-19T05:07:10;2.13;;;1.27;;
42884;SDS011;28534;48.100;11.584;2023-01-19T05:12:13;3.30;;;1.52;;
42884;SDS011;28534;48.100;11.584;2023-01-19T05:17:15;2.22;;;1.20;;
42884;SDS011;28534;48.100;11.584;2023-01-19T05:22:17;3.00;;;1.27;;
42884;SDS011;28534;48.100;11.584;2023-01-19T05:27:20;5.10;;;1.50;;
42884;SDS011;28534;48.100;11.584;2023-01-19T05:32:22;2.95;;;1.13;;
42884;SDS011;28534;48.100;11.584;2023-01-19T05:37:24;5.38;;;1.40;;
42884;SDS011;28534;48.100;11.584;2023-01-19T05:42:27;4.60;;;1.40;;
42884;SDS011;28534;48.100;11.584;2023-01-19T05:47:29;4.50;;;1.52;;
42884;SDS011;28534;48.100;11.584;2023-01-19T05:52:30;3.92;;;1.17;;
42884;SDS011;28534;48.100;11.584;2023-01-19T05:57:34;3.45;;;1.45;;
42884;SDS011;28534;48.100;11.584;2023-01-19T06:02:35;4.20;;;1.35;;
42884;SDS011;28534;48.100;11.584;2023-01-19T06:07:37;3.70;;;1.50;;
42884;SDS011;28534;48.100;11.584;2023-01-19T06:12:40;7.13;;;1.55;;
42884;SDS011;28534;48.100;11.584;2023-01-19T06:17:42;6.78;;;1.90;;
42884;SDS011;28534;48.100;11.584;2023-01-19T06:22:44;7.18;;;2.03;;
42884;SDS011;28534;48.100;11.584;2023-01-19T06:27:48;11.60;;;1.88;;
42884;SDS011;28534;48.100;11.584;2023-01-19T06:32:50;5.35;;;2.22;;
42884;SDS011;28534;48.100;11.584;2023-01-19T06:37:53;6.22;;;2.38;;
42884;SDS011;28534;48.100;11.584;2023-01-19T06:42:56;6.68;;;2.30;;
42884;SDS011;28534;48.100;11.584;2023-01-19T06:47:58;8.77;;;2.20;;
42884;SDS011;28534;48.100;11.584;2023-01-19T06:53:00;5.68;;;2.15;;
42884;SDS011;28534;48.100;11.584;2023-01-19T06:58:03;9.52;;;2.90;;
42884;SDS011;28534;48.100;11.584;2023-01-19T07:03:05;8.18;;;2.40;;
42884;SDS011;28534;48.100;11.584;2023-01-19T07:08:07;10.25;;;3.22;;
42884;SDS011;28534;48.100;11.584;2023-01-19T07:13:10;8.57;;;2.45;;
42884;SDS011;28534;48.100;11.584;2023-01-19T07:18:12;7.15;;;2.13;;
42884;SDS011;28534;48.100;11.584;2023-01-19T07:23:14;9.93;;;2.20;;
42884;SDS011;28534;48.100;11.584;2023-01-19T07:28:17;8.95;;;2.42;;
42884;SDS011;28534;48.100;11.584;2023-01-19T07:33:20;9.45;;;2.28;;
42884;SDS011;28534;48.100;11.584;2023-01-19T07:38:23;7.57;;;1.90;;
42884;SDS011;28534;48.100;11.584;2023-01-19T07:43:26;7.03;;;2.40;;
42884;SDS011;28534;48.100;11.584;2023-01-19T07:48:28;8.35;;;1.70;;
42884;SDS011;28534;48.100;11.584;2023-01-19T07:53:30;4.43;;;1.98;;
42884;SDS011;28534;48.100;11.584;2023-01-19T07:58:33;8.05;;;1.98;;
42884;SDS011;28534;48.100;11.584;2023-01-19T08:03:35;7.47;;;2.38;;
42884;SDS011;28534;48.100;11.584;2023-01-19T08:08:37;6.90;;;2.10;;
42884;SDS011;28534;48.100;11.584;2023-01-19T08:13:40;5.95;;;2.33;;
42884;SDS011;28534;48.100;11.584;2023-01-19T08:18:43;6.78;;;1.73;;
42884;SDS011;28534;48.100;11.584;2023-01-19T08:23:50;6.97;;;2.35;;
42884;SDS011;28534;48.100;11.584;2023-01-19T08:28:53;7.53;;;2.08;;
42884;SDS011;28534;48.100;11.584;2023-01-19T08:33:56;4.50;;;1.95;;
42884;SDS011;28534;48.100;11.584;2023-01-19T08:38:58;4.05;;;1.83;;
42884;SDS011;28534;48.100;11.584;2023-01-19T08:44:01;5.90;;;1.92;;
42884;SDS011;28534;48.100;11.584;2023-01-19T08:49:03;3.42;;;1.50;;
42884;SDS011;28534;48.100;11.584;2023-01-19T08:54:05;6.40;;;1.90;;
42884;SDS011;28534;48.100;11.584;2023-01-19T08:59:08;6.13;;;2.00;;
42884;SDS011;28534;48.100;11.584;2023-01-19T09:04:10;3.80;;;1.67;;
42884;SDS011;28534;48.100;11.584;2023-01-19T09:09:12;6.32;;;2.25;;
42884;SDS011;28534;48.100;11.584;2023-01-19T09:14:15;4.95;;;2.13;;
42884;SDS011;28534;48.100;11.584;2023-01-19T09:19:17;5.97;;;1.85;;
42884;SDS011;28534;48.100;11.584;2023-01-19T09:24:19;8.13;;;2.10;;
42884;SDS011;28534;48.100;11.584;2023-01-19T09:29:22;5.72;;;1.60;;
42884;SDS011;28534;48.100;11.584;2023-01-19T09:34:24;4.68;;;1.75;;
42884;SDS011;28534;48.100;11.584;2023-01-19T09:39:26;8.20;;;2.15;;
42884;SDS011;28534;48.100;11.584;2023-01-19T09:44:31;4.68;;;1.50;;
42884;SDS011;28534;48.100;11.584;2023-01-19T09:49:35;8.02;;;1.92;;
42884;SDS011;28534;48.100;11.584;2023-01-19T09:54:42;4.10;;;1.80;;
42884;SDS011;28534;48.100;11.584;2023-01-19T09:59:51;6.57;;;2.13;;
42884;SDS011;28534;48.100;11.584;2023-01-19T10:04:58;3.60;;;1.70;;
42884;SDS011;28534;48.100;11.584;2023-01-19T10:10:12;4.43;;;1.65;;
42884;SDS011;28534;48.100;11.584;2023-01-19T10:15:23;7.50;;;2.00;;
42884;SDS011;28534;48.100;11.584;2023-01-19T10:20:35;4.10;;;1.77;;
42884;SDS011;28534;48.100;11.584;2023-01-19T10:25:40;4.40;;;1.52;;
42884;SDS011;28534;48.100;11.584;2023-01-19T10:30:43;5.30;;;1.63;;
42884;SDS011;28534;48.100;11.584;2023-01-19T10:35:47;6.60;;;1.70;;
42884;SDS011;28534;48.100;11.584;2023-01-19T10:40:52;4.53;;;1.52;;
42884;SDS011;28534;48.100;11.584;2023-01-19T10:45:59;3.47;;;1.50;;
42884;SDS011;28534;48.100;11.584;2023-01-19T10:51:01;4.25;;;1.70;;
42884;SDS011;28534;48.100;11.584;2023-01-19T10:56:08;5.18;;;1.63;;
42884;SDS011;28534;48.100;11.584;2023-01-19T11:01:16;5.07;;;1.50;;
42884;SDS011;28534;48.100;11.584;2023-01-19T11:06:23;4.25;;;1.42;;
42884;SDS011;28534;48.100;11.584;2023-01-19T11:11:30;4.18;;;1.58;;
42884;SDS011;28534;48.100;11.584;2023-01-19T11:16:46;3.03;;;1.38;;
42884;SDS011;28534;48.100;11.584;2023-01-19T11:21:49;4.20;;;1.80;;
42884;SDS011;28534;48.100;11.584;2023-01-19T11:26:53;5.35;;;2.55;;
42884;SDS011;28534;48.100;11.584;2023-01-19T11:32:10;3.72;;;1.80;;
42884;SDS011;28534;48.100;11.584;2023-01-19T11:37:24;4.15;;;1.60;;
42884;SDS011;28534;48.100;11.584;2023-01-19T11:42:29;4.03;;;1.75;;
42884;SDS011;28534;48.100;11.584;2023-01-19T11:47:37;3.03;;;1.45;;
42884;SDS011;28534;48.100;11.584;2023-01-19T11:52:43;3.83;;;1.73;;
42884;SDS011;28534;48.100;11.584;2023-01-19T11:57:48;3.38;;;1.50;;
42884;SDS011;28534;48.100;11.584;2023-01-19T12:02:54;3.03;;;1.67;;
42884;SDS011;28534;48.100;11.584;2023-01-19T12:08:02;3.30;;;1.50;;
42884;SDS011;28534;48.100;11.584;2023-01-19T12:13:10;3.78;;;1.70;;
42884;SDS011;28534;48.100;11.584;2023-01-19T12:18:22;4.05;;;1.50;;
42884;SDS011;28534;48.100;11.584;2023-01-19T12:23:34;8.57;;;2.00;;
42884;SDS011;28534;48.100;11.584;2023-01-19T12:28:44;6.28;;;1.85;;
42884;SDS011;28534;48.100;11.584;2023-01-19T12:33:49;7.10;;;1.90;;
42884;SDS011;28534;48.100;11.584;2023-01-19T12:38:51;4.57;;;1.70;;
42884;SDS011;28534;48.100;11.584;2023-01-19T12:49:32;6.95;;;1.88;;
42884;SDS011;28534;48.100;11.584;2023-01-19T12:54:35;5.47;;;1.83;;
42884;SDS011;28534;48.100;11.584;2023-01-19T12:59:39;4.20;;;1.95;;
42884;SDS011;28534;48.100;11.584;2023-01-19T13:04:46;4.75;;;1.70;;
42884;SDS011;28534;48.100;11.584;2023-01-19T13:15:48;4.15;;;1.63;;
42884;SDS011;28534;48.100;11.584;2023-01-19T13:20:53;5.13;;;1.52;;
42884;SDS011;28534;48.100;11.584;2023-01-19T13:26:00;4.90;;;1.33;;
42884;SDS011;28534;48.100;11.584;2023-01-19T13:31:04;6.40;;;1.55;;
42884;SDS011;28534;48.100;11.584;2023-01-19T13:36:14;4.05;;;1.88;;
42884;SDS011;28534;48.100;11.584;2023-01-19T13:41:21;3.70;;;1.50;;
42884;SDS011;28534;48.100;11.584;2023-01-19T13:46:25;3.00;;;1.48;;
42884;SDS011;28534;48.100;11.584;2023-01-19T13:51:30;4.72;;;1.67;;
42884;SDS011;28534;48.100;11.584;2023-01-19T13:56:32;4.75;;;1.65;;
42884;SDS011;28534;48.100;11.584;2023-01-19T14:01:34;5.80;;;1.60;;
42884;SDS011;28534;48.100;11.584;2023-01-19T14:06:38;4.32;;;1.50;;
42884;SDS011;28534;48.100;11.584;2023-01-19T14:11:45;5.57;;;1.65;;
42884;SDS011;28534;48.100;11.584;2023-01-19T14:17:03;5.35;;;1.63;;
42884;SDS011;28534;48.100;11.584;2023-01-19T14:22:17;6.68;;;1.70;;
42884;SDS011;28534;48.100;11.584;2023-01-19T14:27:21;4.93;;;1.60;;
42884;SDS011;28534;48.100;11.584;2023-01-19T14:32:24;3.85;;;1.90;;
42884;SDS011;28534;48.100;11.584;2023-01-19T14:37:28;3.97;;;1.55;;
42884;SDS011;28534;48.100;11.584;2023-01-19T14:42:32;5.57;;;1.65;;
42884;SDS011;28534;48.100;11.584;2023-01-19T14:47:37;3.80;;;1.40;;
42884;SDS011;28534;48.100;11.584;2023-01-19T14:52:42;5.93;;;1.48;;
42884;SDS011;28534;48.100;11.584;2023-01-19T14:57:52;4.18;;;1.70;;
42884;SDS011;28534;48.100;11.584;2023-01-19T15:02:54;7.25;;;1.70;;
42884;SDS011;28534;48.100;11.584;2023-01-19T15:07:57;2.70;;;1.50;;
42884;SDS011;28534;48.100;11.584;2023-01-19T15:13:01;3.65;;;1.90;;
42884;SDS011;28534;48.100;11.584;2023-01-19T15:18:03;6.70;;;1.77;;
42884;SDS011;28534;48.100;11.584;2023-01-19T15:23:13;6.70;;;1.70;;
42884;SDS011;28534;48.100;11.584;2023-01-19T15:28:16;3.55;;;1.48;;
42884;SDS011;28534;48.100;11.584;2023-01-19T15:33:19;7.22;;;1.77;;
42884;SDS011;28534;48.100;11.584;2023-01-19T15:38:23;3.65;;;1.40;;
42884;SDS011;28534;48.100;11.584;2023-01-19T15:43:25;7.53;;;1.90;;
42884;SDS011;28534;48.100;11.584;2023-01-19T15:48:27;7.70;;;1.83;;
42884;SDS011;28534;48.100;11.584;2023-01-19T15:53:30;7.78;;;1.75;;
42884;SDS011;28534;48.100;11.584;2023-01-19T15:58:33;5.70;;;1.65;;
42884;SDS011;28534;48.100;11.584;2023-01-19T16:03:36;7.70;;;2.00;;
42884;SDS011;28534;48.100;11.584;2023-01-19T16:08:39;22.42;;;12.60;;
42884;SDS011;28534;48.100;11.584;2023-01-19T16:13:43;22.42;;;13.98;;
42884;SDS011;28534;48.100;11.584;2023-01-19T16:18:45;20.40;;;11.05;;
42884;SDS011;28534;48.100;11.584;2023-01-19T16:23:48;24.95;;;13.43;;
42884;SDS011;28534;48.100;11.584;2023-01-19T16:28:50;22.25;;;11.82;;
42884;SDS011;28534;48.100;11.584;2023-01-19T16:33:52;18.55;;;10.93;;
42884;SDS011;28534;48.100;11.584;2023-01-19T16:38:56;17.55;;;9.43;;
42884;SDS011;28534;48.100;11.584;2023-01-19T16:43:58;18.02;;;9.07;;
42884;SDS011;28534;48.100;11.584;2023-01-19T16:49:02;15.10;;;8.13;;
42884;SDS011;28534;48.100;11.584;2023-01-19T16:54:06;17.95;;;7.68;;
42884;SDS011;28534;48.100;11.584;2023-01-19T16:59:13;15.88;;;7.15;;
42884;SDS011;28534;48.100;11.584;2023-01-19T17:04:16;13.95;;;7.05;;
42884;SDS011;28534;48.100;11.584;2023-01-19T17:09:19;15.65;;;7.22;;
42884;SDS011;28534;48.100;11.584;2023-01-19T17:14:21;17.45;;;7.32;;
42884;SDS011;28534;48.100;11.584;2023-01-19T17:19:23;12.48;;;6.53;;
42884;SDS011;28534;48.100;11.584;2023-01-19T17:24:26;15.32;;;6.13;;
42884;SDS011;28534;48.100;11.584;2023-01-19T17:29:28;12.70;;;5.95;;
42884;SDS011;28534;48.100;11.584;2023-01-19T17:34:29;17.08;;;6.30;;
42884;SDS011;28534;48.100;11.584;2023-01-19T17:39:32;14.70;;;5.82;;
42884;SDS011;28534;48.100;11.584;2023-01-19T17:44:34;11.68;;;5.65;;
42884;SDS011;28534;48.100;11.584;2023-01-19T17:49:37;11.63;;;5.95;;
42884;SDS011;28534;48.100;11.584;2023-01-19T17:54:40;10.77;;;5.47;;
42884;SDS011;28534;48.100;11.584;2023-01-19T17:59:41;11.60;;;5.75;;
42884;SDS011;28534;48.100;11.584;2023-01-19T18:04:43;7.65;;;6.25;;
42884;SDS011;28534;48.100;11.584;2023-01-19T18:09:46;7.90;;;5.50;;
42884;SDS011;28534;48.100;11.584;2023-01-19T18:14:48;9.77;;;7.15;;
42884;SDS011;28534;48.100;11.584;2023-01-19T18:19:50;5.80;;;5.18;;
42884;SDS011;28534;48.100;11.584;2023-01-19T18:24:55;5.93;;;4.47;;
42884;SDS011;28534;48.100;11.584;2023-01-19T18:29:56;5.32;;;4.22;;
42884;SDS011;28534;48.100;11.584;2023-01-19T18:34:58;5.50;;;3.97;;
42884;SDS011;28534;48.100;11.584;2023-01-19T18:40:03;5.18;;;3.70;;
42884;SDS011;28534;48.100;11.584;2023-01-19T18:45:05;5.45;;;3.35;;
42884;SDS011;28534;48.100;11.584;2023-01-19T18:50:09;6.35;;;3.30;;
42884;SDS011;28534;48.100;11.584;2023-01-19T18:55:14;4.13;;;3.05;;
42884;SDS011;28534;48.100;11.584;2023-01-19T19:00:16;4.20;;;3.15;;
42884;SDS011;28534;48.100;11.584;2023-01-19T19:05:19;3.80;;;3.15;;
42884;SDS011;28534;48.100;11.584;2023-01-19T19:10:22;3.28;;;2.72;;
42884;SDS011;28534;48.100;11.584;2023-01-19T19:15:24;3.95;;;2.80;;
42884;SDS011;28534;48.100;11.584;2023-01-19T19:20:26;3.83;;;2.97;;
42884;SDS011;28534;48.100;11.584;2023-01-19T19:25:29;4.50;;;2.90;;
42884;SDS011;28534;48.100;11.584;2023-01-19T19:30:31;5.50;;;2.85;;
42884;SDS011;28534;48.100;11.584;2023-01-19T19:35:36;5.25;;;2.88;;
42884;SDS011;28534;48.100;11.584;2023-01-19T19:40:39;3.50;;;2.40;;
42884;SDS011;28534;48.100;11.584;2023-01-19T19:45:41;4.43;;;2.70;;
42884;SDS011;28534;48.100;11.584;2023-01-19T19:50:43;4.45;;;2.40;;
42884;SDS011;28534;48.100;11.584;2023-01-19T19:55:55;4.35;;;2.75;;
42884;SDS011;28534;48.100;11.584;2023-01-19T20:00:58;3.03;;;2.38;;
42884;SDS011;28534;48.100;11.584;2023-01-19T20:06:02;4.07;;;2.25;;
42884;SDS011;28534;48.100;11.584;2023-01-19T20:11:07;4.65;;;2.17;;
42884;SDS011;28534;48.100;11.584;2023-01-19T20:16:11;3.28;;;2.35;;
42884;SDS011;28534;48.100;11.584;2023-01-19T20:21:14;3.25;;;2.50;;
42884;SDS011;28534;48.100;11.584;2023-01-19T20:26:19;2.60;;;2.20;;
42884;SDS011;28534;48.100;11.584;2023-01-19T20:31:23;4.00;;;2.45;;
42884;SDS011;28534;48.100;11.584;2023-01-19T20:36:26;2.72;;;2.25;;
42884;SDS011;28534;48.100;11.584;2023-01-19T20:41:29;3.67;;;2.20;;
42884;SDS011;28534;48.100;11.584;2023-01-19T20:46:31;2.95;;;2.40;;
42884;SDS011;28534;48.100;11.584;2023-01-19T20:51:33;3.08;;;2.25;;
42884;SDS011;28534;48.100;11.584;2023-01-19T20:56:37;2.88;;;2.28;;
42884;SDS011;28534;48.100;11.584;2023-01-19T21:01:40;2.67;;;2.20;;
42884;SDS011;28534;48.100;11.584;2023-01-19T21:06:42;6.57;;;5.50;;
42884;SDS011;28534;48.100;11.584;2023-01-19T21:12:00;7.45;;;4.93;;
42884;SDS011;28534;48.100;11.584;2023-01-19T21:17:02;5.63;;;4.38;;
42884;SDS011;28534;48.100;11.584;2023-01-19T21:22:03;5.28;;;3.88;;
42884;SDS011;28534;48.100;11.584;2023-01-19T21:27:07;4.47;;;3.72;;
42884;SDS011;28534;48.100;11.584;2023-01-19T21:32:08;4.13;;;3.60;;
42884;SDS011;28534;48.100;11.584;2023-01-19T21:37:10;4.38;;;3.30;;
42884;SDS011;28534;48.100;11.584;2023-01-19T21:42:13;4.15;;;3.30;;
42884;SDS011;28534;48.100;11.584;2023-01-19T21:47:15;4.32;;;3.30;;
42884;SDS011;28534;48.100;11.584;2023-01-19T21:52:17;4.45;;;3.10;;
42884;SDS011;28534;48.100;11.584;2023-01-19T21:57:20;5.45;;;3.33;;
42884;SDS011;28534;48.100;11.584;2023-01-19T22:02:22;4.00;;;2.90;;
42884;SDS011;28534;48.100;11.584;2023-01-19T22:07:24;3.50;;;2.90;;
42884;SDS011;28534;48.100;11.584;2023-01-19T22:12:27;4.80;;;3.25;;
42884;SDS011;28534;48.100;11.584;2023-01-19T22:17:29;5.70;;;2.92;;
42884;SDS011;28534;48.100;11.584;2023-01-19T22:22:30;3.67;;;3.10;;
42884;SDS011;28534;48.100;11.584;2023-01-19T22:27:34;4.15;;;3.10;;
42884;SDS011;28534;48.100;11.584;2023-01-19T22:32:36;3.83;;;2.55;;
42884;SDS011;28534;48.100;11.584;2023-01-19T22:37:38;3.28;;;2.65;;
42884;SDS011;28534;48.100;11.584;2023-01-19T22:42:44;4.45;;;2.97;;
42884;SDS011;28534;48.100;11.584;2023-01-19T22:47:46;3.17;;;2.80;;
42884;SDS011;28534;48.100;11.584;2023-01-19T22:52:48;3.05;;;2.70;;
42884;SDS011;28534;48.100;11.584;2023-01-19T22:57:56;4.40;;;2.65;;
42884;SDS011;28534;48.100;11.584;2023-01-19T23:02:57;2.97;;;2.20;;
42884;SDS011;28534;48.100;11.584;2023-01-19T23:07:59;3.80;;;2.45;;
42884;SDS011;28534;48.100;11.584;2023-01-19T23:13:02;3.75;;;2.72;;
42884;SDS011;28534;48.100;11.584;2023-01-19T23:18:04;3.13;;;2.70;;
42884;SDS011;28534;48.100;11.584;2023-01-19T23:23:06;3.83;;;2.70;;
42884;SDS011;28534;48.100;11.584;2023-01-19T23:28:09;2.92;;;2.50;;
42884;SDS011;28534;48.100;11.584;2023-01-19T23:33:10;2.85;;;2.30;;
42884;SDS011;28534;48.100;11.584;2023-01-19T23:38:12;3.83;;;2.58;;
42884;SDS011;28534;48.100;11.584;2023-01-19T23:43:15;3.88;;;2.67;;
42884;SDS011;28534;48.100;11.584;2023-01-19T23:48:17;2.80;;;2.30;;
42884;SDS011;28534;48.100;11.584;2023-01-19T23:53:19;2.95;;;2.65;;
42884;SDS011;28534;48.100;11.584;2023-01-19T23:58:22;3.00;;;2.50;;
